Time;durP1;ratioP1;P1;durP2;ratioP2;P2;SDS_P1;SDS_P2;PMS_P1;PMS_P2;Temp;Humidity;BMP_temperature;BMP_pressure;BME280_temperature;BME280_humidity;BME280_pressure;Samples;Min_cycle;Max_cycle;Signal;HPM_P1;HPM_P2
2023/12/05 00:01:56;;;;;;;335.02;133.68;;;1.50;91.20;;;;;;5036477;28;20427;-53
2023/12/05 00:04:22;;;;;;;424.20;160.90;;;1.50;91.20;;;;;;5036815;28;20046;-54
2023/12/05 00:06:48;;;;;;;495.45;189.20;;;1.50;91.10;;;;;;5037457;28;20044;-54
2023/12/05 00:09:14;;;;;;;346.80;138.10;;;1.50;91.10;;;;;;5036919;28;20018;-54
2023/12/05 00:11:40;;;;;;;396.35;150.07;;;1.60;91.20;;;;;;5037158;28;20018;-54
2023/12/05 00:14:06;;;;;;;381.27;144.82;;;1.60;91.20;;;;;;5036990;28;20501;-53
2023/12/05 00:16:32;;;;;;;389.73;146.32;;;1.60;91.40;;;;;;5036383;28;20025;-54
2023/12/05 00:18:58;;;;;;;360.30;141.25;;;1.80;91.40;;;;;;5037218;28;20472;-54
2023/12/05 00:21:24;;;;;;;290.50;122.68;;;1.80;91.20;;;;;;5037211;28;20032;-53
2023/12/05 00:23:50;;;;;;;247.85;111.35;;;1.80;91.10;;;;;;5036550;28;20021;-53
2023/12/05 00:26:16;;;;;;;242.95;110.15;;;1.80;90.90;;;;;;5036624;28;20088;-53
2023/12/05 00:28:42;;;;;;;224.18;101.22;;;1.60;91.00;;;;;;5036968;28;20041;-53
2023/12/05 00:31:08;;;;;;;241.57;105.93;;;1.50;90.90;;;;;;5036425;28;20104;-53
2023/12/05 00:33:34;;;;;;;245.80;112.45;;;1.40;91.40;;;;;;5036574;28;20072;-53
2023/12/05 00:36:00;;;;;;;253.27;112.80;;;1.30;91.30;;;;;;5036385;28;20024;-54
2023/12/05 00:38:26;;;;;;;244.07;112.53;;;1.30;91.30;;;;;;5036283;28;20026;-53
2023/12/05 00:40:52;;;;;;;254.85;113.25;;;1.20;91.50;;;;;;5036509;28;20072;-53
2023/12/05 00:43:17;;;;;;;249.70;112.15;;;1.20;91.50;;;;;;5036413;28;20041;-54
2023/12/05 00:45:43;;;;;;;256.17;115.20;;;1.20;91.80;;;;;;5035969;28;20228;-54
2023/12/05 00:48:09;;;;;;;253.38;113.78;;;1.10;92.30;;;;;;5036317;28;20033;-53
2023/12/05 00:50:35;;;;;;;275.67;123.10;;;1.10;93.00;;;;;;5036324;28;20057;-53
2023/12/05 00:53:01;;;;;;;282.40;126.40;;;1.20;93.30;;;;;;5035906;28;20033;-53
2023/12/05 00:55:27;;;;;;;278.60;125.68;;;1.20;93.20;;;;;;5036228;28;20097;-53
2023/12/05 00:57:53;;;;;;;267.88;120.50;;;1.20;93.30;;;;;;5036522;28;20030;-53
2023/12/05 01:00:19;;;;;;;269.70;120.05;;;1.20;93.50;;;;;;5035839;28;20033;-54
2023/12/05 01:02:44;;;;;;;297.02;128.38;;;1.20;93.40;;;;;;5036101;28;20021;-54
2023/12/05 01:05:10;;;;;;;298.80;131.35;;;1.20;93.50;;;;;;5035855;28;20037;-54
2023/12/05 01:07:36;;;;;;;301.63;130.48;;;1.40;93.40;;;;;;5035864;28;20055;-54
2023/12/05 01:10:03;;;;;;;302.08;133.48;;;1.40;93.00;;;;;;5035986;28;20036;-54
2023/12/05 01:12:29;;;;;;;283.33;128.45;;;1.40;92.50;;;;;;5035993;28;20033;-53
2023/12/05 01:14:58;;;;;;;276.63;124.30;;;1.30;92.60;;;;;;5035185;28;20021;-54
2023/12/05 01:17:25;;;;;;;281.10;124.35;;;1.30;93.10;;;;;;5035778;28;20486;-53
2023/12/05 01:19:50;;;;;;;304.33;126.00;;;1.10;93.20;;;;;;5036129;28;20026;-53
2023/12/05 01:22:16;;;;;;;380.33;138.68;;;1.20;93.30;;;;;;5036021;28;20129;-53
2023/12/05 01:24:42;;;;;;;427.75;150.60;;;1.30;93.30;;;;;;5035345;28;20038;-54
2023/12/05 01:27:08;;;;;;;411.25;146.40;;;1.40;93.40;;;;;;5035878;28;20482;-54
2023/12/05 01:29:34;;;;;;;385.10;139.52;;;1.40;93.30;;;;;;5035634;28;20379;-53
2023/12/05 01:32:00;;;;;;;394.85;140.55;;;1.40;93.20;;;;;;5035436;28;20026;-53
2023/12/05 01:34:26;;;;;;;436.30;148.93;;;1.40;93.20;;;;;;5035596;28;20091;-53
2023/12/05 01:36:51;;;;;;;378.20;135.25;;;1.40;93.40;;;;;;5035480;28;20052;-53
2023/12/05 01:39:17;;;;;;;380.08;135.48;;;1.40;93.20;;;;;;5035090;28;20490;-54
2023/12/05 01:41:43;;;;;;;354.45;131.52;;;1.40;93.10;;;;;;5035510;28;20025;-53
2023/12/05 01:44:09;;;;;;;327.02;122.95;;;1.40;93.00;;;;;;5035581;28;20035;-53
2023/12/05 01:46:35;;;;;;;319.58;123.78;;;1.40;93.30;;;;;;5035147;28;20032;-54
2023/12/05 01:49:02;;;;;;;301.05;117.22;;;1.40;92.90;;;;;;5035458;28;20022;-53
2023/12/05 01:51:30;;;;;;;301.77;116.90;;;1.50;93.00;;;;;;5035459;28;20071;-53
2023/12/05 01:53:56;;;;;;;325.00;119.93;;;1.50;93.00;;;;;;5034972;28;20139;-54
2023/12/05 01:56:22;;;;;;;317.23;121.57;;;1.50;93.00;;;;;;5035245;28;20042;-53
2023/12/05 01:58:48;;;;;;;299.40;113.32;;;1.40;92.80;;;;;;5035271;28;20105;-53
2023/12/05 02:01:15;;;;;;;303.77;116.13;;;1.30;92.90;;;;;;5035279;28;20033;-53
2023/12/05 02:03:43;;;;;;;313.02;117.45;;;1.20;93.20;;;;;;5035156;28;20101;-54
2023/12/05 02:06:10;;;;;;;278.95;111.50;;;1.30;93.70;;;;;;5035170;28;20037;-54
2023/12/05 02:08:37;;;;;;;250.40;107.70;;;1.30;93.70;;;;;;5035058;28;20503;-53
2023/12/05 02:11:03;;;;;;;241.80;101.38;;;1.30;93.40;;;;;;5035182;28;20033;-54
2023/12/05 02:13:29;;;;;;;235.00;101.45;;;1.30;93.70;;;;;;5035162;28;20021;-53
2023/12/05 02:16:31;;;;;;;234.73;103.78;;;1.20;93.50;;;;;;5035007;28;20041;-53
2023/12/05 02:19:14;;;;;;;232.43;96.38;;;1.20;93.50;;;;;;5022540;28;20471;-54
2023/12/05 02:21:43;;;;;;;275.15;118.00;;;1.10;93.80;;;;;;5034868;28;20029;-54
2023/12/05 02:24:40;;;;;;;273.85;114.90;;;1.10;94.20;;;;;;5035012;28;20037;-54
2023/12/05 02:27:27;;;;;;;244.63;103.43;;;1.10;94.10;;;;;;5039094;28;20033;-53
2023/12/05 02:29:53;;;;;;;238.27;102.32;;;1.00;94.70;;;;;;5036485;28;20022;-54
2023/12/05 02:32:19;;;;;;;240.50;105.85;;;1.00;95.20;;;;;;5038826;28;20041;-54
2023/12/05 02:34:45;;;;;;;237.93;106.22;;;0.90;95.50;;;;;;5038721;28;20095;-54
2023/12/05 02:37:14;;;;;;;222.02;98.70;;;0.90;95.60;;;;;;5038021;28;20030;-54
2023/12/05 02:39:57;;;;;;;222.55;98.85;;;0.90;95.40;;;;;;5038832;28;20032;-54
2023/12/05 02:42:25;;;;;;;229.80;98.88;;;0.90;94.80;;;;;;5038640;28;20033;-53
2023/12/05 02:44:54;;;;;;;223.13;100.15;;;0.80;94.70;;;;;;5038470;28;20057;-53
2023/12/05 02:47:23;;;;;;;230.18;104.03;;;0.80;94.90;;;;;;5038069;28;20395;-53
2023/12/05 02:49:50;;;;;;;227.00;101.47;;;0.80;94.90;;;;;;5038636;28;20365;-54
2023/12/05 02:52:20;;;;;;;231.35;102.80;;;0.80;95.10;;;;;;5038174;28;20453;-53
2023/12/05 02:54:46;;;;;;;228.23;99.72;;;0.80;95.40;;;;;;5038280;28;20087;-53
2023/12/05 02:57:12;;;;;;;232.77;103.40;;;0.90;95.50;;;;;;5038479;28;20033;-53
2023/12/05 02:59:38;;;;;;;233.40;102.38;;;0.80;95.40;;;;;;5038273;28;20030;-53
2023/12/05 03:02:04;;;;;;;230.18;101.13;;;0.70;95.70;;;;;;5038255;28;20037;-54
2023/12/05 03:04:30;;;;;;;233.98;100.95;;;0.60;95.80;;;;;;5038177;28;20082;-54
2023/12/05 03:06:56;;;;;;;230.05;101.97;;;0.60;95.80;;;;;;5037987;28;20038;-53
2023/12/05 03:09:22;;;;;;;239.20;105.78;;;0.70;95.90;;;;;;5038298;28;20096;-53
2023/12/05 03:11:48;;;;;;;223.68;101.55;;;0.60;95.80;;;;;;5038059;28;20483;-54
2023/12/05 03:14:14;;;;;;;243.02;103.18;;;0.50;95.90;;;;;;5037872;28;20037;-54
2023/12/05 03:16:41;;;;;;;242.23;108.25;;;0.30;96.00;;;;;;5038048;28;20399;-53
2023/12/05 03:19:07;;;;;;;239.20;107.05;;;0.30;96.00;;;;;;5038093;28;20030;-54
2023/12/05 03:21:33;;;;;;;223.13;101.38;;;0.30;96.30;;;;;;5037878;28;20435;-53
2023/12/05 03:23:59;;;;;;;226.23;100.45;;;0.20;96.80;;;;;;5037861;28;20037;-54
2023/12/05 03:26:25;;;;;;;230.50;103.93;;;0.20;97.50;;;;;;5037925;28;20036;-53
2023/12/05 03:28:51;;;;;;;246.23;107.88;;;0.20;97.70;;;;;;5037638;28;20029;-53
2023/12/05 03:31:18;;;;;;;244.18;106.32;;;0.10;97.80;;;;;;5037983;28;20028;-54
2023/12/05 03:33:44;;;;;;;250.75;110.22;;;0.10;97.80;;;;;;5037803;28;20396;-54
2023/12/05 03:36:11;;;;;;;241.05;107.78;;;0.00;97.70;;;;;;5036819;28;20026;-53
2023/12/05 03:38:41;;;;;;;233.13;107.55;;;0.00;98.00;;;;;;5037536;28;20030;-53
2023/12/05 03:41:08;;;;;;;218.93;100.53;;;-0.10;98.10;;;;;;5037514;28;20033;-54
2023/12/05 03:43:34;;;;;;;214.63;98.20;;;-0.10;98.50;;;;;;5037532;28;20032;-54
2023/12/05 03:46:00;;;;;;;194.35;88.40;;;-0.10;99.30;;;;;;5037452;28;20048;-53
2023/12/05 03:48:26;;;;;;;210.05;95.03;;;-0.10;99.90;;;;;;5037453;28;20095;-53
2023/12/05 03:50:52;;;;;;;226.85;100.07;;;-0.20;99.90;;;;;;5037182;28;20029;-54
2023/12/05 03:53:18;;;;;;;231.63;103.65;;;-0.30;99.90;;;;;;5037161;28;20046;-53
2023/12/05 03:55:44;;;;;;;224.90;103.53;;;-0.40;99.90;;;;;;5037475;28;20021;-54
2023/12/05 03:58:10;;;;;;;218.02;96.45;;;-0.40;99.90;;;;;;5037010;28;20079;-53
2023/12/05 04:00:36;;;;;;;205.38;92.05;;;-0.30;99.90;;;;;;5037317;28;20075;-53
2023/12/05 04:03:02;;;;;;;215.45;95.03;;;-0.30;99.90;;;;;;5037183;28;20519;-53
2023/12/05 04:05:28;;;;;;;218.20;96.35;;;-0.40;99.90;;;;;;5036933;28;20044;-53
2023/12/05 04:07:53;;;;;;;218.23;98.53;;;-0.40;99.90;;;;;;5037113;28;20026;-53
2023/12/05 04:10:19;;;;;;;218.80;99.18;;;-0.50;99.90;;;;;;5037174;28;20022;-53
2023/12/05 04:12:45;;;;;;;217.57;98.78;;;-0.40;99.90;;;;;;5036795;28;20021;-53
2023/12/05 04:15:11;;;;;;;222.10;101.15;;;-0.50;99.90;;;;;;5037036;28;20380;-53
2023/12/05 04:17:38;;;;;;;215.77;101.40;;;-0.50;99.90;;;;;;5036890;28;20430;-54
2023/12/05 04:20:06;;;;;;;230.13;102.03;;;-0.60;99.90;;;;;;5036860;28;20204;-53
2023/12/05 04:22:33;;;;;;;227.02;98.90;;;-0.70;99.90;;;;;;5036844;28;20060;-53
2023/12/05 04:24:58;;;;;;;234.18;103.07;;;-0.50;99.90;;;;;;5036796;28;20030;-54
2023/12/05 04:27:25;;;;;;;213.43;96.35;;;-0.50;99.90;;;;;;5036636;28;20112;-53
2023/12/05 04:29:51;;;;;;;201.43;91.78;;;-0.50;99.90;;;;;;5036471;28;20479;-53
2023/12/05 04:32:17;;;;;;;211.30;94.80;;;-0.50;99.90;;;;;;5037028;28;20091;-53
2023/12/05 04:34:44;;;;;;;209.85;90.25;;;-0.50;99.90;;;;;;5036623;28;20029;-53
2023/12/05 04:37:11;;;;;;;205.70;93.13;;;-0.50;99.90;;;;;;5036351;28;20494;-53
2023/12/05 04:39:37;;;;;;;196.68;90.03;;;-0.60;99.90;;;;;;5036441;28;20056;-53
2023/12/05 04:42:03;;;;;;;200.68;89.43;;;-0.60;99.90;;;;;;5036165;28;20431;-53
2023/12/05 04:44:29;;;;;;;204.10;93.28;;;-0.50;99.90;;;;;;5036272;28;20029;-53
2023/12/05 04:46:57;;;;;;;203.73;91.63;;;-0.60;99.90;;;;;;5036135;28;20036;-53
2023/12/05 04:49:23;;;;;;;206.27;91.07;;;-0.60;99.90;;;;;;5036407;28;20036;-53
2023/12/05 04:51:49;;;;;;;197.00;91.53;;;-0.70;99.90;;;;;;5035984;28;20029;-53
2023/12/05 04:54:15;;;;;;;202.93;89.43;;;-0.70;99.90;;;;;;5036114;28;20041;-54
2023/12/05 04:56:42;;;;;;;200.93;86.38;;;-0.70;99.90;;;;;;5036242;28;20080;-53
2023/12/05 04:59:08;;;;;;;185.55;86.03;;;-0.80;99.90;;;;;;5035965;28;20026;-53
2023/12/05 05:01:34;;;;;;;194.70;86.55;;;-0.80;99.90;;;;;;5036181;28;20457;-53
2023/12/05 05:04:00;;;;;;;194.93;87.90;;;-0.80;99.90;;;;;;5035856;28;20030;-53
2023/12/05 05:06:26;;;;;;;211.23;94.90;;;-0.80;99.90;;;;;;5035706;28;20045;-53
2023/12/05 05:08:51;;;;;;;209.82;93.72;;;-0.80;99.90;;;;;;5036284;28;20021;-53
2023/12/05 05:11:17;;;;;;;219.35;99.15;;;-0.80;99.90;;;;;;5036220;28;20040;-53
2023/12/05 05:13:43;;;;;;;218.50;96.97;;;-0.80;99.90;;;;;;5035676;28;20039;-53
2023/12/05 05:16:10;;;;;;;231.68;103.88;;;-0.90;99.90;;;;;;5035762;28;20029;-54
2023/12/05 05:18:37;;;;;;;210.43;97.65;;;-0.80;99.90;;;;;;5035900;28;20022;-53
2023/12/05 05:21:05;;;;;;;214.27;97.55;;;-1.00;99.90;;;;;;5035500;28;20497;-53
2023/12/05 05:23:34;;;;;;;213.05;96.03;;;-1.00;99.90;;;;;;5035720;28;20056;-53
2023/12/05 05:26:00;;;;;;;203.95;93.05;;;-0.90;99.90;;;;;;5035542;28;20108;-53
2023/12/05 05:28:26;;;;;;;211.75;94.80;;;-0.90;99.90;;;;;;5035384;28;20021;-53
2023/12/05 05:30:54;;;;;;;216.43;95.97;;;-1.00;99.90;;;;;;5035608;28;20045;-53
2023/12/05 05:33:24;;;;;;;208.55;91.57;;;-0.90;99.90;;;;;;5035610;28;20092;-53
2023/12/05 05:35:50;;;;;;;213.65;93.75;;;-0.80;99.90;;;;;;5035381;28;20057;-53
2023/12/05 05:38:16;;;;;;;273.30;124.47;;;-0.90;99.90;;;;;;5035339;28;20025;-53
2023/12/05 05:40:42;;;;;;;277.40;130.50;;;-0.90;99.90;;;;;;5035477;28;20033;-53
2023/12/05 05:43:08;;;;;;;251.52;115.43;;;-0.80;99.90;;;;;;5035421;28;20037;-53
2023/12/05 05:45:34;;;;;;;249.98;112.82;;;-0.70;99.90;;;;;;5035339;28;20057;-53
2023/12/05 05:48:00;;;;;;;236.02;110.35;;;-0.90;99.90;;;;;;5034712;28;20446;-53
2023/12/05 05:50:26;;;;;;;250.35;112.38;;;-1.00;99.90;;;;;;5034906;28;20092;-53
2023/12/05 05:52:52;;;;;;;238.57;108.65;;;-1.10;99.90;;;;;;5034957;28;20069;-53
2023/12/05 05:55:18;;;;;;;243.13;110.88;;;-1.10;99.90;;;;;;5034971;28;20040;-53
2023/12/05 05:57:45;;;;;;;247.73;112.80;;;-1.10;99.90;;;;;;5034903;28;20371;-53
2023/12/05 06:00:11;;;;;;;260.08;115.78;;;-1.10;99.90;;;;;;5038035;28;20053;-53
2023/12/05 06:02:38;;;;;;;241.90;108.25;;;-1.20;99.90;;;;;;5041854;28;20087;-53
2023/12/05 06:05:05;;;;;;;238.63;106.10;;;-1.20;99.90;;;;;;5041172;28;20037;-53
2023/12/05 06:07:31;;;;;;;220.32;101.57;;;-1.20;99.90;;;;;;5041881;28;20032;-53
2023/12/05 06:09:57;;;;;;;228.85;103.32;;;-1.00;99.90;;;;;;5041652;28;20036;-53
2023/12/05 06:12:23;;;;;;;219.48;94.93;;;-1.00;99.90;;;;;;5041512;28;20030;-53
2023/12/05 06:14:49;;;;;;;208.98;94.75;;;-0.90;99.90;;;;;;5041461;28;20030;-54
2023/12/05 06:17:15;;;;;;;216.35;96.95;;;-0.70;99.90;;;;;;5041811;28;20032;-53
2023/12/05 06:19:41;;;;;;;223.68;97.70;;;-0.60;99.90;;;;;;5041457;28;20037;-53
2023/12/05 06:22:07;;;;;;;221.35;97.13;;;-0.90;99.90;;;;;;5041660;28;20044;-53
2023/12/05 06:24:33;;;;;;;202.23;89.57;;;-0.80;99.90;;;;;;5039828;28;20052;-54
2023/12/05 06:26:59;;;;;;;215.25;96.53;;;-0.80;99.90;;;;;;5037804;28;20049;-53
2023/12/05 06:29:25;;;;;;;345.52;128.85;;;-0.80;99.90;;;;;;5040934;28;20025;-53
2023/12/05 06:31:51;;;;;;;482.00;164.13;;;-0.70;99.90;;;;;;5041098;28;20079;-53
2023/12/05 06:34:17;;;;;;;475.85;167.25;;;-0.80;99.90;;;;;;5040586;28;20025;-53
2023/12/05 06:36:43;;;;;;;486.33;168.80;;;-0.90;99.90;;;;;;5040276;28;20364;-53
2023/12/05 06:39:09;;;;;;;307.75;132.85;;;-0.90;99.90;;;;;;5040815;28;20123;-53
2023/12/05 06:41:35;;;;;;;275.38;112.47;;;-0.80;99.90;;;;;;5039782;28;20029;-53
2023/12/05 06:44:05;;;;;;;213.48;93.03;;;-0.80;99.90;;;;;;5031402;28;20387;-53
2023/12/05 06:46:31;;;;;;;215.05;95.32;;;-0.90;99.90;;;;;;5040413;28;20439;-53
2023/12/05 06:48:58;;;;;;;218.07;95.68;;;-0.80;99.90;;;;;;5041035;28;20048;-53
2023/12/05 06:51:25;;;;;;;209.00;92.25;;;-0.70;99.90;;;;;;5041236;28;20395;-53
2023/12/05 06:53:51;;;;;;;197.35;83.80;;;-0.60;99.90;;;;;;5041195;28;20407;-53
2023/12/05 06:56:20;;;;;;;196.57;88.25;;;-0.50;99.90;;;;;;5041216;28;20124;-53
2023/12/05 06:58:46;;;;;;;208.20;88.85;;;-0.40;99.90;;;;;;5041366;28;20056;-54
2023/12/05 07:01:12;;;;;;;211.32;90.85;;;-0.40;99.90;;;;;;5040221;28;20052;-53
2023/12/05 07:03:38;;;;;;;203.65;87.05;;;-0.20;99.90;;;;;;5034375;28;20029;-53
2023/12/05 07:06:05;;;;;;;192.20;84.47;;;0.00;99.90;;;;;;5041418;28;20383;-53
2023/12/05 07:08:31;;;;;;;213.32;87.90;;;0.00;99.90;;;;;;5041438;28;20033;-53
2023/12/05 07:10:57;;;;;;;230.63;84.35;;;0.10;99.90;;;;;;5038368;28;20049;-53
2023/12/05 07:13:23;;;;;;;210.77;86.40;;;0.20;99.90;;;;;;5035677;28;20037;-54
2023/12/05 07:15:49;;;;;;;203.05;81.57;;;0.10;99.90;;;;;;5037304;28;20171;-53
2023/12/05 07:18:15;;;;;;;219.52;80.13;;;0.20;99.90;;;;;;5037924;28;20029;-54
2023/12/05 07:20:41;;;;;;;206.45;80.88;;;0.40;99.90;;;;;;5038221;28;20022;-53
2023/12/05 07:23:07;;;;;;;214.73;87.65;;;0.70;99.90;;;;;;5037766;28;20036;-53
2023/12/05 07:25:33;;;;;;;198.15;84.57;;;1.10;99.90;;;;;;5038003;28;20037;-53
2023/12/05 07:27:59;;;;;;;209.10;86.95;;;1.50;99.00;;;;;;5037468;28;20030;-53
2023/12/05 07:30:25;;;;;;;259.10;111.07;;;2.40;98.60;;;;;;5038190;28;20030;-53
2023/12/05 07:32:51;;;;;;;239.32;97.72;;;3.20;95.60;;;;;;5037546;28;20049;-54
2023/12/05 07:35:18;;;;;;;207.18;86.43;;;3.80;93.30;;;;;;5038152;28;20025;-54
2023/12/05 07:37:44;;;;;;;196.07;89.25;;;4.00;92.00;;;;;;5037850;28;20026;-54
2023/12/05 07:40:10;;;;;;;185.07;81.78;;;4.90;91.00;;;;;;5035528;28;20021;-54
2023/12/05 07:42:36;;;;;;;191.18;88.45;;;6.60;83.40;;;;;;5036394;28;20179;-54
2023/12/05 07:45:04;;;;;;;220.43;96.88;;;7.80;73.10;;;;;;5037038;28;20071;-54
2023/12/05 07:47:30;;;;;;;197.80;89.22;;;8.20;66.50;;;;;;5036183;28;20033;-53
2023/12/05 07:49:56;;;;;;;215.98;95.55;;;8.70;64.60;;;;;;5036460;28;20483;-54
2023/12/05 07:52:22;;;;;;;242.95;101.70;;;9.00;61.00;;;;;;5035954;28;20040;-54
2023/12/05 07:54:48;;;;;;;208.25;97.30;;;8.70;59.80;;;;;;5037311;28;20041;-54
2023/12/05 07:57:15;;;;;;;249.35;115.70;;;9.50;58.60;;;;;;5036699;28;20041;-54
2023/12/05 07:59:41;;;;;;;278.88;131.15;;;8.70;57.10;;;;;;5035153;28;20026;-54
2023/12/05 08:02:07;;;;;;;268.50;126.50;;;8.60;56.60;;;;;;5036411;28;20032;-54
2023/12/05 08:04:35;;;;;;;260.23;125.72;;;8.90;57.00;;;;;;5036393;28;20574;-54
2023/12/05 08:07:01;;;;;;;289.20;136.10;;;8.60;57.00;;;;;;5036913;28;20099;-54
2023/12/05 08:09:27;;;;;;;318.55;155.60;;;9.20;55.80;;;;;;5034062;28;20489;-54
2023/12/05 08:11:53;;;;;;;316.48;154.40;;;9.60;54.30;;;;;;5036984;28;20076;-54
2023/12/05 08:14:19;;;;;;;313.58;152.18;;;9.70;54.60;;;;;;5036668;28;20094;-54
2023/12/05 08:16:46;;;;;;;290.70;146.18;;;9.90;52.50;;;;;;5036110;28;20033;-54
2023/12/05 08:19:12;;;;;;;299.05;150.30;;;10.70;51.90;;;;;;5031554;28;20631;-54
2023/12/05 08:21:38;;;;;;;299.17;153.18;;;11.30;49.10;;;;;;5036431;28;20025;-54
2023/12/05 08:24:04;;;;;;;316.23;156.18;;;10.60;49.20;;;;;;5036551;28;20084;-54
2023/12/05 08:26:31;;;;;;;293.05;148.73;;;10.50;49.90;;;;;;5036414;28;20045;-54
2023/12/05 08:28:58;;;;;;;268.58;134.20;;;10.50;49.90;;;;;;5016993;28;20025;-54
2023/12/05 08:31:24;;;;;;;254.23;129.57;;;10.80;50.00;;;;;;5021513;28;20390;-54
2023/12/05 08:33:50;;;;;;;243.90;127.38;;;12.00;47.60;;;;;;5033735;28;20026;-54
2023/12/05 08:36:16;;;;;;;236.15;121.45;;;12.00;45.40;;;;;;5034798;28;20100;-55
2023/12/05 08:38:42;;;;;;;236.93;123.85;;;10.70;46.30;;;;;;5036801;28;20428;-54
2023/12/05 08:41:08;;;;;;;232.68;124.53;;;10.30;47.50;;;;;;5036229;28;20026;-54
2023/12/05 08:43:34;;;;;;;222.20;115.20;;;9.70;48.70;;;;;;5036081;28;20056;-54
2023/12/05 08:46:02;;;;;;;233.77;118.53;;;9.40;50.80;;;;;;5033621;28;20029;-54
2023/12/05 08:48:28;;;;;;;253.13;121.53;;;9.30;52.00;;;;;;5035876;28;20479;-54
2023/12/05 08:50:55;;;;;;;240.13;117.63;;;9.10;52.20;;;;;;5035761;28;20075;-54
2023/12/05 08:53:21;;;;;;;239.55;113.13;;;8.40;53.20;;;;;;5035456;28;20308;-54
2023/12/05 08:55:47;;;;;;;231.20;114.13;;;8.30;54.80;;;;;;5035065;28;20017;-54
2023/12/05 08:58:13;;;;;;;236.40;119.43;;;8.00;55.60;;;;;;5034423;28;20022;-54
2023/12/05 09:00:39;;;;;;;239.15;121.07;;;7.70;56.80;;;;;;5031506;28;20037;-54
2023/12/05 09:03:04;;;;;;;254.15;125.00;;;7.60;56.10;;;;;;5035256;28;20478;-54
2023/12/05 09:05:30;;;;;;;247.40;123.75;;;7.70;57.00;;;;;;5033987;28;20032;-54
2023/12/05 09:07:56;;;;;;;255.65;126.78;;;7.60;57.10;;;;;;5035158;28;20035;-54
2023/12/05 09:10:22;;;;;;;251.32;122.47;;;7.90;57.80;;;;;;5035060;28;20040;-54
2023/12/05 09:12:48;;;;;;;250.98;125.75;;;8.10;58.40;;;;;;5034406;28;20387;-54
2023/12/05 09:15:14;;;;;;;257.55;131.25;;;8.40;57.30;;;;;;5033155;28;20021;-54
2023/12/05 09:17:40;;;;;;;241.43;120.05;;;9.00;56.20;;;;;;5035361;28;20014;-55
2023/12/05 09:20:06;;;;;;;236.82;120.55;;;9.80;54.80;;;;;;5033178;28;20041;-55
2023/12/05 09:22:32;;;;;;;247.25;121.30;;;10.40;51.80;;;;;;5033189;28;20090;-54
2023/12/05 09:25:00;;;;;;;227.13;116.38;;;11.20;50.00;;;;;;5032842;28;20087;-55
2023/12/05 09:27:26;;;;;;;218.75;115.60;;;12.00;49.40;;;;;;5027761;28;20456;-55
2023/12/05 09:29:52;;;;;;;263.40;130.13;;;12.60;48.20;;;;;;5029761;28;20030;-55
2023/12/05 09:32:19;;;;;;;227.18;120.88;;;13.00;45.30;;;;;;5031253;28;20036;-54
2023/12/05 09:34:45;;;;;;;227.23;114.85;;;13.50;44.40;;;;;;5034468;28;20033;-54
2023/12/05 09:37:11;;;;;;;205.93;110.43;;;13.40;42.60;;;;;;5025166;28;20029;-54
2023/12/05 09:39:37;;;;;;;205.07;107.75;;;13.10;40.90;;;;;;5015364;28;20022;-55
2023/12/05 09:42:10;;;;;;;214.50;109.95;;;13.10;42.70;;;;;;5015299;28;20052;-54
2023/12/05 09:44:38;;;;;;;225.95;115.65;;;13.50;39.60;;;;;;5025010;28;20533;-54
2023/12/05 09:47:05;;;;;;;245.30;122.18;;;13.90;40.10;;;;;;5032569;28;20419;-54
2023/12/05 09:49:31;;;;;;;224.10;118.57;;;14.50;37.90;;;;;;5039945;28;20328;-55
2023/12/05 09:51:59;;;;;;;243.43;124.15;;;14.40;38.10;;;;;;5030076;28;20176;-55
2023/12/05 09:54:26;;;;;;;236.55;119.03;;;15.20;35.80;;;;;;5033142;28;20435;-55
2023/12/05 09:56:56;;;;;;;235.98;118.18;;;16.50;33.20;;;;;;5025815;28;20033;-54
2023/12/05 09:59:24;;;;;;;242.60;123.32;;;16.60;33.40;;;;;;5019680;28;20030;-55
2023/12/05 10:01:56;;;;;;;250.80;122.22;;;17.40;30.00;;;;;;5015183;28;20044;-55
2023/12/05 10:04:22;;;;;;;226.65;119.32;;;17.10;31.00;;;;;;5014870;28;20433;-55
2023/12/05 10:06:48;;;;;;;236.85;120.25;;;16.80;30.50;;;;;;5015375;28;20034;-55
2023/12/05 10:09:20;;;;;;;238.82;118.60;;;17.70;30.60;;;;;;5014858;28;20061;-55
2023/12/05 10:11:47;;;;;;;234.85;121.25;;;18.40;29.80;;;;;;5048815;28;20037;-55
2023/12/05 10:14:13;;;;;;;236.63;119.75;;;19.00;27.90;;;;;;5032844;28;20472;-55
2023/12/05 10:16:39;;;;;;;250.35;126.43;;;19.20;27.80;;;;;;5023201;28;20034;-55
2023/12/05 10:19:08;;;;;;;264.33;128.95;;;19.80;25.60;;;;;;5015275;28;20193;-55
2023/12/05 10:21:35;;;;;;;216.05;109.22;;;19.20;26.40;;;;;;5018316;28;20036;-55
2023/12/05 10:24:01;;;;;;;213.32;104.20;;;18.30;26.10;;;;;;5034713;28;20167;-55
2023/12/05 10:26:28;;;;;;;189.73;93.50;;;17.60;26.20;;;;;;5034350;28;20500;-55
2023/12/05 10:28:57;;;;;;;146.98;80.57;;;18.00;25.80;;;;;;5028203;28;20033;-55
2023/12/05 10:31:23;;;;;;;130.15;67.57;;;17.90;25.00;;;;;;5028257;28;20040;-55
2023/12/05 10:33:52;;;;;;;112.28;61.97;;;18.20;24.80;;;;;;5034675;28;20075;-55
2023/12/05 10:36:18;;;;;;;99.97;53.40;;;18.40;24.10;;;;;;5034195;28;20036;-55
2023/12/05 10:38:46;;;;;;;68.65;35.70;;;18.80;23.90;;;;;;5034253;28;20124;-55
2023/12/05 10:41:20;;;;;;;54.20;25.70;;;19.20;22.50;;;;;;5033549;28;20084;-55
2023/12/05 10:43:51;;;;;;;57.83;27.40;;;19.90;20.70;;;;;;5034593;28;20034;-55
2023/12/05 10:46:17;;;;;;;;;;;19.60;20.20;;;;;;5030994;28;20036;-55
2023/12/05 10:48:45;;;;;;;43.55;22.58;;;20.40;21.00;;;;;;5031443;28;20286;-55
2023/12/05 10:51:11;;;;;;;48.42;24.83;;;20.00;19.40;;;;;;5038293;28;20040;-55
2023/12/05 10:53:39;;;;;;;52.10;22.15;;;20.10;19.50;;;;;;5037981;28;20444;-55
2023/12/05 10:56:15;;;;;;;38.72;21.00;;;20.60;19.20;;;;;;5033997;28;20021;-55
2023/12/05 10:58:42;;;;;;;35.42;19.27;;;20.00;18.00;;;;;;5035720;28;20034;-55
2023/12/05 11:01:10;;;;;;;42.47;18.48;;;19.50;19.20;;;;;;5037595;28;20057;-55
2023/12/05 11:03:40;;;;;;;27.05;15.20;;;19.30;19.00;;;;;;5032018;28;20044;-55
2023/12/05 11:06:07;;;;;;;42.05;18.75;;;18.90;18.80;;;;;;5026739;28;20471;-55
2023/12/05 11:08:35;;;;;;;40.55;19.08;;;19.10;21.30;;;;;;5037858;28;20426;-55
2023/12/05 11:11:05;;;;;;;45.80;19.45;;;18.90;20.10;;;;;;5038185;28;20488;-55
2023/12/05 11:13:34;;;;;;;41.73;19.53;;;18.80;20.60;;;;;;5035753;28;20104;-55
2023/12/05 11:16:10;;;;;;;41.75;19.25;;;18.40;20.60;;;;;;5031310;28;20281;-55
2023/12/05 11:18:39;;;;;;;39.25;18.30;;;18.20;22.10;;;;;;5036645;28;20036;-55
2023/12/05 11:21:45;;;;;;;37.57;18.53;;;18.00;21.80;;;;;;5029083;28;20041;-55
2023/12/05 11:24:24;;;;;;;32.75;16.67;;;18.40;20.90;;;;;;5033469;28;20657;-55
2023/12/05 11:26:55;;;;;;;43.13;19.45;;;18.70;21.90;;;;;;5037725;28;20440;-55
2023/12/05 11:30:03;;;;;;;39.33;20.10;;;18.30;21.40;;;;;;5035326;28;20028;-55
2023/12/05 11:32:29;;;;;;;33.17;15.27;;;18.60;21.30;;;;;;5014709;28;20057;-55
2023/12/05 11:35:22;;;;;;;25.85;13.07;;;19.00;22.00;;;;;;5015477;28;20072;-55
2023/12/05 11:37:53;;;;;;;31.05;14.15;;;19.50;22.00;;;;;;5029886;28;20203;-55
2023/12/05 11:40:19;;;;;;;21.17;11.38;;;19.70;20.50;;;;;;5037427;28;20494;-55
2023/12/05 11:43:05;;;;;;;31.65;13.95;;;20.10;19.20;;;;;;5037471;28;20029;-55
2023/12/05 11:45:31;;;;;;;29.73;12.85;;;20.60;18.80;;;;;;5037236;28;20117;-55
2023/12/05 11:48:01;;;;;;;29.73;12.73;;;20.50;18.70;;;;;;5037313;28;20029;-55
2023/12/05 11:50:42;;;;;;;22.50;8.80;;;19.40;18.80;;;;;;5037414;28;20029;-55
2023/12/05 11:53:11;;;;;;;20.42;8.88;;;18.50;20.10;;;;;;5036732;28;20052;-55
2023/12/05 11:55:45;;;;;;;15.18;6.18;;;19.40;21.00;;;;;;5034943;28;20036;-55
2023/12/05 11:58:31;;;;;;;29.42;10.95;;;19.60;20.70;;;;;;5025856;28;20280;-55
2023/12/05 12:01:04;;;;;;;40.65;10.70;;;20.40;19.60;;;;;;5030485;28;20036;-55
2023/12/05 12:03:53;;;;;;;24.20;10.32;;;21.00;18.60;;;;;;5028739;28;20050;-55
2023/12/05 12:06:25;;;;;;;19.50;8.93;;;21.40;18.20;;;;;;5030305;28;20075;-55
2023/12/05 12:08:53;;;;;;;24.17;7.47;;;22.20;17.50;;;;;;5036949;28;20022;-55
2023/12/05 12:11:23;;;;;;;14.55;6.63;;;22.10;17.90;;;;;;5036820;28;20382;-55
2023/12/05 12:13:50;;;;;;;22.50;8.63;;;22.40;17.40;;;;;;5035467;28;20042;-55
2023/12/05 12:16:18;;;;;;;19.25;7.38;;;20.70;16.40;;;;;;5033158;28;20044;-55
2023/12/05 12:18:44;;;;;;;21.90;8.90;;;20.40;17.60;;;;;;5036471;28;20040;-55
2023/12/05 12:21:11;;;;;;;24.52;11.57;;;20.50;17.60;;;;;;5050508;28;20041;-56